Portada
METAR-TAF:

METAR-TAF

Aeroports :

Mombasa, Kenya

latitud: 04-02S, longitud: 039-37E, altitud: 57 m

Observació

L'informe es va fer fa 6 hores i 25 minuts, a les 18:00 UTC
Vent 5 kt del Est/Nord-Est
Temperatura 27°C
Humitat 84%
Pressió 1011 hPa
Visibilitat 10 km o més
Escasses núvols a una alçada de 2200 ft

METAR: HKMO 301800Z 07005KT 9999 FEW022 27/24 Q1011 NOSIG

Hora: 03:25 (00:25 UTC)

Pronòstic

L'informe es va fer fa 1 hora i 25 minuts, a les 23:00 UTC
Pronòstic vàlid del 01 a les 00 UTC al 02 a les 06 UTC
Vent 5 kt del Oest/Sud-Oest
Visibilitat 10 km o més
Escasses núvols a una alçada de 2000 ft
Evolucionant progressivament
l' 01 a les 09 UTC al 01 a les 12 UTC
Vent 10 kt del Est
Núvols disperses a una alçada de 2600 ft
Evolucionant progressivament
l' 02 a les 00 UTC al 02 a les 03 UTC
Vent 5 kt del Oest/Sud-Oest
Escasses núvols a una alçada de 2000 ft

TAF: HKMO 302300Z 0100/0206 25005KT 9999 FEW020 BECMG 0109/0112 09010KT SCT026 BECMG 0200/0203 25005KT FEW020

Observacions i pronòstics meteorològics de més de 4000 aeroports (METAR i TAF).

Les estacions disponibles són els punts grocs i vermells al mapa.

Posi el ratolí al punt desitjat per veure el nom de l'estació.

Feu clic per veure les observacions i els pronòstics meteorològics.

Per canviar el mapa: feu clic els botons verds amb una creu de color negre per apropar; al botó verd amb un guió per allunyar la imatge; o en les fletxes verdes per a mapes adjacents.


METAR-TAF: